Time;durP1;ratioP1;P1;durP2;ratioP2;P2;SDS_P1;SDS_P2;PMS_P1;PMS_P2;Temp;Humidity;BMP_temperature;BMP_pressure;BME280_temperature;BME280_humidity;BME280_pressure;Samples;Min_cycle;Max_cycle;Signal;HPM_P1;HPM_P2
2023/03/26 00:01:57;;;;;;;2.17;0.75;;;10.00;99.90;;;;;;5018301;28;20018;-69
2023/03/26 00:04:24;;;;;;;5.07;0.90;;;9.90;99.90;;;;;;5017711;28;20044;-71
2023/03/26 00:06:50;;;;;;;7.15;1.02;;;10.00;99.90;;;;;;5018549;28;20026;-70
2023/03/26 00:09:16;;;;;;;7.88;1.05;;;10.10;99.90;;;;;;5017593;28;20050;-71
2023/03/26 00:11:45;;;;;;;2.60;0.60;;;10.20;99.90;;;;;;5018081;28;20022;-71
2023/03/26 00:14:12;;;;;;;6.07;0.80;;;10.10;99.90;;;;;;5017897;28;20018;-70
2023/03/26 00:16:38;;;;;;;2.65;0.80;;;10.00;99.90;;;;;;5017059;28;20036;-70
2023/03/26 00:19:04;;;;;;;12.30;0.90;;;9.70;99.90;;;;;;5017462;28;20044;-70
2023/03/26 00:21:30;;;;;;;5.13;0.65;;;9.70;99.90;;;;;;5017190;28;20022;-70
2023/03/26 00:23:58;;;;;;;4.97;0.90;;;9.70;99.90;;;;;;5017381;28;20025;-70
2023/03/26 00:26:25;;;;;;;6.57;0.95;;;9.80;99.90;;;;;;5017307;28;20032;-70
2023/03/26 00:28:51;;;;;;;7.30;1.25;;;9.80;99.90;;;;;;5016727;28;20124;-71
2023/03/26 00:31:17;;;;;;;3.35;0.90;;;9.90;99.90;;;;;;5040726;23;20088;-69
2023/03/26 00:33:42;;;;;;;4.28;0.93;;;9.90;99.90;;;;;;5016860;28;20029;-69
2023/03/26 00:36:18;;;;;;;13.30;1.40;;;10.00;99.90;;;;;;5017278;28;20159;-68
2023/03/26 00:38:45;;;;;;;7.57;0.95;;;10.10;99.90;;;;;;5016991;28;20029;-69
2023/03/26 00:41:21;;;;;;;4.75;1.15;;;10.10;99.90;;;;;;5018020;28;20064;-69
2023/03/26 00:43:48;;;;;;;8.63;1.17;;;10.10;99.90;;;;;;5017940;28;20018;-68
2023/03/26 00:46:16;;;;;;;5.00;2.17;;;10.10;99.90;;;;;;5017897;28;20026;-69
2023/03/26 00:48:41;;;;;;;8.02;1.08;;;10.10;99.90;;;;;;5017122;28;20091;-68
2023/03/26 00:51:10;;;;;;;9.00;1.00;;;10.10;99.90;;;;;;5017360;28;20090;-68
2023/03/26 00:53:37;;;;;;;6.25;0.75;;;10.10;99.90;;;;;;5016807;28;20030;-69
2023/03/26 00:56:04;;;;;;;5.20;1.05;;;10.20;99.90;;;;;;5016989;28;20038;-69
2023/03/26 00:58:30;;;;;;;5.28;1.45;;;10.20;99.90;;;;;;5016756;28;20076;-69
2023/03/26 01:00:58;;;;;;;4.18;1.00;;;10.10;99.90;;;;;;5016922;28;20022;-69
2023/03/26 01:03:29;;;;;;;7.82;1.02;;;10.10;99.90;;;;;;5016617;28;20113;-68
2023/03/26 01:06:06;;;;;;;7.30;1.27;;;10.20;99.90;;;;;;5016946;28;20036;-69
2023/03/26 01:08:41;;;;;;;10.02;1.38;;;10.10;99.90;;;;;;5016691;28;20060;-69
2023/03/26 01:11:13;;;;;;;5.03;1.13;;;10.10;99.90;;;;;;5017455;28;20033;-69
2023/03/26 01:13:42;;;;;;;6.47;1.25;;;10.20;99.90;;;;;;5017486;28;20030;-69
2023/03/26 01:16:20;;;;;;;5.15;1.02;;;10.10;99.90;;;;;;5016879;28;20037;-69
2023/03/26 01:18:47;;;;;;;7.55;1.75;;;10.10;99.90;;;;;;5016525;28;20022;-69
2023/03/26 01:21:21;;;;;;;8.82;1.35;;;10.20;99.90;;;;;;5016944;28;20022;-69
2023/03/26 01:23:58;;;;;;;6.88;1.27;;;10.20;99.90;;;;;;5016476;28;20022;-69
2023/03/26 01:26:52;;;;;;;6.28;1.10;;;10.20;99.90;;;;;;5016836;28;20022;-68
2023/03/26 01:29:40;;;;;;;7.85;1.02;;;10.20;99.90;;;;;;5017290;28;20034;-68
2023/03/26 01:32:17;;;;;;;6.68;1.30;;;10.10;99.90;;;;;;5016517;28;20030;-68
2023/03/26 01:34:56;;;;;;;6.20;1.33;;;10.10;99.90;;;;;;5016977;28;20040;-68
2023/03/26 01:38:09;;;;;;;7.80;1.27;;;10.20;99.90;;;;;;5017312;28;20028;-69
2023/03/26 01:40:55;;;;;;;6.35;1.50;;;10.20;99.90;;;;;;5017223;28;20088;-69
2023/03/26 01:44:02;;;;;;;10.20;1.33;;;10.30;99.90;;;;;;4996514;28;20036;-69
2023/03/26 01:46:33;;;;;;;9.55;1.77;;;10.30;99.90;;;;;;4976734;28;20053;-68
2023/03/26 01:48:58;;;;;;;11.63;1.70;;;10.20;99.90;;;;;;4960444;28;20034;-69
2023/03/26 01:51:39;;;;;;;8.05;1.30;;;10.20;99.90;;;;;;4960551;28;20045;-69
2023/03/26 01:54:08;;;;;;;12.55;1.70;;;10.20;99.90;;;;;;4960400;28;20023;-69
2023/03/26 01:56:49;;;;;;;8.05;1.30;;;10.30;99.90;;;;;;4960450;28;20046;-68
2023/03/26 01:59:42;;;;;;;9.70;1.67;;;10.10;99.90;;;;;;4976447;28;20027;-68
2023/03/26 02:02:32;;;;;;;8.23;1.63;;;10.10;99.90;;;;;;4976759;28;20117;-69
2023/03/26 02:05:28;;;;;;;14.88;2.38;;;10.10;99.90;;;;;;4960577;28;20031;-69
2023/03/26 02:08:04;;;;;;;11.75;1.70;;;10.00;99.90;;;;;;4976137;28;20037;-70
2023/03/26 02:10:34;;;;;;;9.27;1.88;;;10.00;99.90;;;;;;4976471;28;20037;-68
2023/03/26 02:13:00;;;;;;;9.10;1.23;;;10.00;99.90;;;;;;4960020;28;20124;-68
2023/03/26 02:15:26;;;;;;;10.30;1.33;;;9.90;99.90;;;;;;4960130;28;20026;-68
2023/03/26 02:17:52;;;;;;;7.07;1.25;;;9.80;99.90;;;;;;5008772;28;20045;-68
2023/03/26 02:20:19;;;;;;;11.70;1.27;;;9.60;99.90;;;;;;5016776;28;20025;-68
2023/03/26 02:22:46;;;;;;;12.30;1.80;;;9.60;99.90;;;;;;5016100;28;20068;-69
2023/03/26 02:25:16;;;;;;;9.20;1.05;;;9.60;99.90;;;;;;5016102;28;20089;-68
2023/03/26 02:27:42;;;;;;;12.43;2.28;;;9.70;99.90;;;;;;5016055;28;20030;-68
2023/03/26 02:30:14;;;;;;;18.67;1.60;;;9.70;99.90;;;;;;5015896;28;20030;-68
2023/03/26 02:32:39;;;;;;;;;;;9.70;99.90;;;;;;5019707;28;20184;-69
2023/03/26 02:35:05;;;;;;;9.25;1.65;;;9.80;99.90;;;;;;5019844;28;19976;-69
2023/03/26 02:37:32;;;;;;;7.47;1.77;;;9.70;99.90;;;;;;5019516;28;20030;-69
2023/03/26 02:39:59;;;;;;;12.52;1.90;;;9.70;99.90;;;;;;5019426;28;20029;-69
2023/03/26 02:42:24;;;;;;;13.32;1.63;;;9.70;99.90;;;;;;5020287;28;20076;-69
2023/03/26 02:44:50;;;;;;;7.85;1.73;;;9.70;99.90;;;;;;5019952;28;20033;-69
2023/03/26 02:47:16;;;;;;;7.35;1.30;;;9.70;99.90;;;;;;5019760;28;20026;-69
2023/03/26 02:49:41;;;;;;;5.68;1.80;;;9.70;99.90;;;;;;5019331;28;20088;-69
2023/03/26 02:52:07;;;;;;;13.57;1.58;;;9.70;99.90;;;;;;5019405;28;20026;-69
2023/03/26 02:54:33;;;;;;;7.65;1.33;;;9.60;99.90;;;;;;5019200;28;20030;-69
2023/03/26 02:56:59;;;;;;;9.07;2.30;;;9.50;99.90;;;;;;5019946;28;20029;-69
2023/03/26 02:59:25;;;;;;;9.70;1.95;;;9.40;99.90;;;;;;5019220;28;20018;-68
2023/03/26 03:01:50;;;;;;;14.77;1.75;;;9.40;99.90;;;;;;5019267;28;20021;-68
2023/03/26 03:04:16;;;;;;;7.68;1.27;;;9.30;99.90;;;;;;5019828;28;20101;-67
2023/03/26 03:06:43;;;;;;;10.90;1.40;;;9.30;99.90;;;;;;5019399;28;20029;-69
2023/03/26 03:09:09;;;;;;;5.28;1.23;;;9.30;99.90;;;;;;5019820;28;20026;-68
2023/03/26 03:11:35;;;;;;;13.00;2.55;;;9.30;99.90;;;;;;5019655;28;20077;-70
2023/03/26 03:14:01;;;;;;;6.53;1.33;;;9.30;99.90;;;;;;5019144;28;20088;-69
2023/03/26 03:16:27;;;;;;;13.30;1.60;;;9.30;99.90;;;;;;5019279;28;20053;-69
2023/03/26 03:18:55;;;;;;;11.32;1.73;;;9.30;99.90;;;;;;5019088;28;20053;-69
2023/03/26 03:21:21;;;;;;;7.45;1.95;;;9.30;99.90;;;;;;5018929;28;20022;-67
2023/03/26 03:23:47;;;;;;;8.70;1.83;;;9.30;99.90;;;;;;5018559;28;20120;-67
2023/03/26 03:26:15;;;;;;;8.05;1.50;;;9.40;99.90;;;;;;5018694;28;20109;-67
2023/03/26 03:28:41;;;;;;;10.40;1.73;;;9.30;99.90;;;;;;5018575;28;20033;-68
2023/03/26 03:31:07;;;;;;;14.45;1.75;;;9.30;99.90;;;;;;5018319;28;20034;-69
2023/03/26 03:33:34;;;;;;;10.10;1.60;;;9.30;99.90;;;;;;5018538;28;20099;-67
2023/03/26 03:36:00;;;;;;;9.40;2.00;;;9.30;99.90;;;;;;5018679;28;20028;-69
2023/03/26 03:38:25;;;;;;;15.75;2.03;;;9.40;99.90;;;;;;5018984;28;20021;-68
2023/03/26 03:40:53;;;;;;;7.47;1.48;;;9.40;99.90;;;;;;5018529;28;20128;-69
2023/03/26 03:43:18;;;;;;;6.55;2.10;;;9.40;99.90;;;;;;5017569;28;20026;-69
2023/03/26 03:45:44;;;;;;;6.32;1.33;;;9.40;99.90;;;;;;5018426;28;20026;-69
2023/03/26 03:48:10;;;;;;;5.63;1.90;;;9.50;99.90;;;;;;5018415;28;20113;-69
2023/03/26 03:50:35;;;;;;;6.97;1.42;;;9.50;99.90;;;;;;5018672;28;20022;-67
2023/03/26 03:53:02;;;;;;;6.38;2.10;;;9.50;99.90;;;;;;5018116;28;20026;-69
2023/03/26 03:55:28;;;;;;;5.15;1.92;;;9.50;99.90;;;;;;5018910;28;20093;-67
2023/03/26 03:57:55;;;;;;;8.05;1.88;;;9.50;99.90;;;;;;5018385;28;20026;-68
2023/03/26 04:00:21;;;;;;;6.63;1.35;;;9.40;99.90;;;;;;5017948;28;20025;-68
2023/03/26 04:02:46;;;;;;;6.63;2.20;;;9.40;99.90;;;;;;5017957;28;20029;-68
2023/03/26 04:05:12;;;;;;;9.23;1.40;;;9.40;99.90;;;;;;5018180;28;20025;-67
2023/03/26 04:07:38;;;;;;;11.10;1.90;;;9.30;99.90;;;;;;5017885;28;20026;-68
2023/03/26 04:10:05;;;;;;;5.93;1.60;;;9.40;99.90;;;;;;5017891;28;20034;-68
2023/03/26 04:12:31;;;;;;;9.57;1.95;;;9.30;99.90;;;;;;5018708;28;20026;-68
2023/03/26 04:14:57;;;;;;;13.93;1.48;;;9.20;99.90;;;;;;5018297;28;20037;-68
2023/03/26 04:17:23;;;;;;;6.40;1.48;;;9.20;99.90;;;;;;5017951;28;20026;-68
2023/03/26 04:19:51;;;;;;;6.07;1.50;;;9.20;99.90;;;;;;5017938;28;20125;-68
2023/03/26 04:22:18;;;;;;;11.07;1.83;;;9.20;99.90;;;;;;5017484;28;20100;-68
2023/03/26 04:24:44;;;;;;;12.00;1.80;;;9.20;99.90;;;;;;5017489;28;20025;-69
2023/03/26 04:27:13;;;;;;;8.90;1.77;;;9.20;99.90;;;;;;5017305;28;20026;-69
2023/03/26 04:29:42;;;;;;;6.80;1.70;;;9.10;99.90;;;;;;5018232;28;20029;-69
2023/03/26 04:32:18;;;;;;;4.57;1.25;;;9.10;99.90;;;;;;5018577;28;20024;-68
2023/03/26 04:34:44;;;;;;;12.60;1.85;;;9.10;99.90;;;;;;5018654;28;20022;-67
2023/03/26 04:37:25;;;;;;;7.57;1.45;;;9.00;99.90;;;;;;5017532;28;20046;-69
2023/03/26 04:39:50;;;;;;;7.45;1.60;;;8.90;99.90;;;;;;5017249;28;20018;-68
2023/03/26 04:42:18;;;;;;;11.18;1.50;;;8.80;99.90;;;;;;5018159;28;20105;-69
2023/03/26 04:44:46;;;;;;;7.25;1.77;;;8.70;99.90;;;;;;5016917;28;20109;-67
2023/03/26 04:47:12;;;;;;;13.10;2.17;;;8.70;99.90;;;;;;5017652;28;20029;-68
2023/03/26 04:49:37;;;;;;;4.10;1.20;;;8.80;99.90;;;;;;5017055;28;20026;-67
2023/03/26 04:52:03;;;;;;;12.60;1.95;;;8.90;99.90;;;;;;5016959;28;20025;-69
2023/03/26 04:54:28;;;;;;;12.80;1.98;;;9.00;99.90;;;;;;5017906;28;20033;-67
2023/03/26 04:57:01;;;;;;;7.10;1.80;;;9.10;99.90;;;;;;5017008;28;20025;-67
2023/03/26 04:59:33;;;;;;;7.38;1.40;;;9.20;99.90;;;;;;5016846;28;20026;-67
2023/03/26 05:02:00;;;;;;;12.73;1.75;;;9.30;99.90;;;;;;5017795;28;20064;-68
2023/03/26 05:04:28;;;;;;;11.02;1.23;;;9.40;99.90;;;;;;5017223;28;20026;-67
2023/03/26 05:06:56;;;;;;;9.15;2.00;;;9.40;99.90;;;;;;5017839;28;20018;-68
2023/03/26 05:09:26;;;;;;;10.10;1.70;;;9.50;99.90;;;;;;5016199;28;20084;-68
2023/03/26 05:11:51;;;;;;;15.60;2.58;;;9.40;99.90;;;;;;5016668;28;20026;-68
2023/03/26 05:14:17;;;;;;;6.20;1.42;;;9.30;99.90;;;;;;5017974;28;20034;-68
2023/03/26 05:16:45;;;;;;;10.27;1.60;;;9.30;99.90;;;;;;5016584;28;20129;-69
2023/03/26 05:19:10;;;;;;;10.77;1.15;;;8.90;99.90;;;;;;5016666;28;20026;-68
2023/03/26 05:21:36;;;;;;;3.42;0.90;;;8.60;99.90;;;;;;5017038;28;20069;-67
2023/03/26 05:24:02;;;;;;;10.50;1.45;;;8.40;99.90;;;;;;5016523;28;20022;-68
2023/03/26 05:26:28;;;;;;;7.85;1.52;;;8.40;99.90;;;;;;5016992;28;20026;-68
2023/03/26 05:28:54;;;;;;;14.88;1.98;;;8.30;99.90;;;;;;5017702;28;20026;-68
2023/03/26 05:31:20;;;;;;;12.98;1.60;;;8.20;99.90;;;;;;5016427;28;20033;-69
2023/03/26 05:33:46;;;;;;;5.22;1.23;;;8.20;99.90;;;;;;5016489;28;20037;-69
2023/03/26 05:36:14;;;;;;;10.20;1.73;;;8.30;99.90;;;;;;5016251;28;20112;-69
2023/03/26 05:38:41;;;;;;;11.95;1.58;;;8.30;99.90;;;;;;5016457;28;20018;-69
2023/03/26 05:41:08;;;;;;;10.25;1.75;;;8.20;99.90;;;;;;5017255;28;20057;-68
2023/03/26 05:43:35;;;;;;;6.15;1.48;;;8.00;99.90;;;;;;5016153;28;20022;-69
2023/03/26 05:46:19;;;;;;;17.73;2.03;;;8.10;99.90;;;;;;5016415;28;20030;-69
2023/03/26 05:48:45;;;;;;;7.00;1.70;;;8.10;99.90;;;;;;5016269;28;20032;-69
2023/03/26 05:51:11;;;;;;;7.00;1.38;;;8.10;99.90;;;;;;5016227;28;20077;-67
2023/03/26 05:53:37;;;;;;;7.90;1.83;;;8.20;99.90;;;;;;5017347;28;20018;-68
2023/03/26 05:56:03;;;;;;;8.43;1.77;;;8.20;99.90;;;;;;5016522;28;20117;-69
2023/03/26 05:58:31;;;;;;;16.50;2.25;;;8.20;99.90;;;;;;5016463;28;20104;-67
2023/03/26 06:01:07;;;;;;;17.17;2.03;;;8.10;99.90;;;;;;5016202;28;20018;-68
2023/03/26 06:03:35;;;;;;;9.43;1.70;;;8.00;99.90;;;;;;5016975;28;20185;-67
2023/03/26 06:06:00;;;;;;;10.05;1.63;;;8.00;99.90;;;;;;5017596;28;20030;-67
2023/03/26 06:08:26;;;;;;;8.02;1.38;;;8.00;99.90;;;;;;5020936;28;20049;-68
2023/03/26 06:10:59;;;;;;;8.98;1.48;;;7.90;99.90;;;;;;5020782;28;20022;-67
2023/03/26 06:13:25;;;;;;;10.27;3.28;;;7.90;99.90;;;;;;5021062;28;20022;-67
2023/03/26 06:15:51;;;;;;;18.83;2.33;;;7.90;99.90;;;;;;5019846;28;20117;-69
2023/03/26 06:18:17;;;;;;;8.60;1.90;;;7.80;99.90;;;;;;5020015;28;20132;-68
2023/03/26 06:20:43;;;;;;;10.38;1.55;;;7.70;99.90;;;;;;5020238;28;20025;-69
2023/03/26 06:23:08;;;;;;;4.75;1.55;;;7.70;99.90;;;;;;5019729;28;20028;-68
2023/03/26 06:25:35;;;;;;;4.60;1.20;;;7.70;99.90;;;;;;5021019;28;20099;-68
2023/03/26 06:28:00;;;;;;;5.47;0.98;;;7.70;99.90;;;;;;5020499;28;20097;-67
2023/03/26 06:30:26;;;;;;;5.38;1.30;;;7.80;99.90;;;;;;5019452;28;20049;-69
2023/03/26 06:32:52;;;;;;;6.50;1.50;;;7.80;99.90;;;;;;5019781;28;20025;-69
2023/03/26 06:35:17;;;;;;;10.05;1.45;;;7.80;99.90;;;;;;5020668;28;20026;-69
2023/03/26 06:37:43;;;;;;;8.20;1.50;;;7.70;99.90;;;;;;5052902;23;20043;-64
2023/03/26 06:40:09;;;;;;;8.98;1.63;;;7.80;99.90;;;;;;5039568;28;20024;-64
2023/03/26 06:42:34;;;;;;;7.82;1.83;;;7.90;99.90;;;;;;5039234;28;20025;-64
2023/03/26 06:45:00;;;;;;;13.10;1.75;;;7.80;99.90;;;;;;5039470;28;20103;-63
2023/03/26 06:47:26;;;;;;;6.50;1.38;;;7.90;99.90;;;;;;5049804;28;20025;-64
2023/03/26 06:49:51;;;;;;;5.68;1.58;;;8.00;99.90;;;;;;5059777;28;20072;-64
2023/03/26 06:52:17;;;;;;;11.13;2.08;;;8.00;99.90;;;;;;5058905;28;20021;-64
2023/03/26 06:54:42;;;;;;;6.75;1.45;;;8.00;99.90;;;;;;5059915;28;20055;-64
2023/03/26 06:57:08;;;;;;;15.30;2.10;;;8.10;99.90;;;;;;5058710;28;20017;-64
2023/03/26 06:59:33;;;;;;;7.00;1.70;;;8.20;99.90;;;;;;5059751;28;20103;-64
2023/03/26 07:01:59;;;;;;;7.32;2.20;;;8.30;99.90;;;;;;5058733;28;20055;-66
2023/03/26 07:04:24;;;;;;;6.03;1.52;;;8.40;99.90;;;;;;5059033;28;20025;-66
2023/03/26 07:06:50;;;;;;;5.97;1.48;;;8.40;99.90;;;;;;5059034;28;20055;-66
2023/03/26 07:09:16;;;;;;;11.60;1.70;;;8.30;99.90;;;;;;5058821;28;20060;-66
2023/03/26 07:11:42;;;;;;;10.93;1.85;;;8.30;99.90;;;;;;5058916;28;20116;-66
2023/03/26 07:14:07;;;;;;;10.98;1.77;;;8.20;99.90;;;;;;5059541;28;20053;-66
2023/03/26 07:16:33;;;;;;;6.30;1.48;;;8.00;99.90;;;;;;5059245;28;20029;-66
2023/03/26 07:18:59;;;;;;;10.90;2.13;;;8.00;99.90;;;;;;5057742;28;20056;-66
2023/03/26 07:21:25;;;;;;;12.77;2.50;;;8.00;99.90;;;;;;5058400;28;20028;-66
2023/03/26 07:23:51;;;;;;;8.75;2.30;;;8.00;99.90;;;;;;5059156;28;20028;-66
2023/03/26 07:26:37;;;;;;;6.43;1.63;;;8.00;99.90;;;;;;5058456;28;20110;-66
2023/03/26 07:29:11;;;;;;;13.63;2.03;;;8.10;99.90;;;;;;5058269;28;20021;-66
2023/03/26 07:31:49;;;;;;;6.90;1.83;;;8.10;99.90;;;;;;5059186;28;20036;-66
2023/03/26 07:34:38;;;;;;;6.68;1.73;;;8.10;99.90;;;;;;5059184;28;20100;-66
2023/03/26 07:37:27;;;;;;;13.15;2.50;;;8.30;99.90;;;;;;5057976;28;20029;-66
2023/03/26 07:40:23;;;;;;;13.02;2.50;;;8.30;99.90;;;;;;5059348;28;20017;-66
2023/03/26 07:43:14;;;;;;;14.07;2.30;;;8.20;99.90;;;;;;5058924;28;20046;-66
2023/03/26 07:45:42;;;;;;;8.68;2.75;;;8.30;99.90;;;;;;5058989;28;20025;-66
2023/03/26 07:48:24;;;;;;;12.27;2.47;;;8.20;99.90;;;;;;5057912;28;20082;-66
2023/03/26 07:50:50;;;;;;;9.15;2.05;;;8.30;99.90;;;;;;5057968;28;20052;-66
2023/03/26 07:53:15;;;;;;;7.07;2.45;;;8.30;99.90;;;;;;5058869;28;20032;-66
2023/03/26 07:55:52;;;;;;;11.48;3.20;;;8.30;99.90;;;;;;5058445;28;20112;-66
2023/03/26 07:58:56;;;;;;;9.85;2.63;;;8.40;99.90;;;;;;5058799;28;20021;-66
2023/03/26 08:01:39;;;;;;;12.07;2.85;;;8.30;99.90;;;;;;5058001;28;20032;-66
2023/03/26 08:04:23;;;;;;;11.25;3.00;;;8.30;99.90;;;;;;5058286;28;20016;-66
2023/03/26 08:07:13;;;;;;;21.63;3.92;;;8.30;99.90;;;;;;5057495;28;20056;-66
2023/03/26 08:10:00;;;;;;;12.98;3.92;;;8.40;99.90;;;;;;5057622;28;20120;-66
2023/03/26 08:12:49;;;;;;;14.32;4.80;;;8.60;99.90;;;;;;5058359;28;20063;-66
2023/03/26 08:15:29;;;;;;;16.42;4.50;;;8.90;99.90;;;;;;5058464;28;20024;-66
2023/03/26 08:18:10;;;;;;;12.00;4.70;;;8.80;99.90;;;;;;5058285;28;20017;-66
2023/03/26 08:21:05;;;;;;;11.27;5.20;;;8.90;99.90;;;;;;5038207;28;20021;-66
2023/03/26 08:23:49;;;;;;;13.23;4.75;;;9.00;99.90;;;;;;5037249;28;20025;-66
2023/03/26 08:26:37;;;;;;;12.43;3.63;;;9.10;99.90;;;;;;5038036;28;20052;-66
2023/03/26 08:29:13;;;;;;;7.40;3.60;;;9.10;99.90;;;;;;5036825;28;20044;-66
2023/03/26 08:31:41;;;;;;;10.00;3.42;;;9.00;99.90;;;;;;5037247;28;20087;-66
2023/03/26 08:34:10;;;;;;;18.08;3.47;;;9.00;99.90;;;;;;5037074;28;20026;-66
2023/03/26 08:36:36;;;;;;;10.43;3.20;;;8.90;99.90;;;;;;5037224;28;20059;-66
2023/03/26 08:39:01;;;;;;;6.47;2.90;;;9.00;99.90;;;;;;5036989;28;20025;-66
2023/03/26 08:41:52;;;;;;;12.07;3.50;;;8.90;99.90;;;;;;5037180;28;20029;-66
2023/03/26 08:44:40;;;;;;;19.98;4.03;;;8.90;99.90;;;;;;5037787;28;20029;-66
2023/03/26 08:47:45;;;;;;;12.00;3.38;;;8.90;99.90;;;;;;5036862;28;20026;-66
2023/03/26 08:50:22;;;;;;;14.50;3.13;;;8.90;99.90;;;;;;5037239;28;20029;-66
2023/03/26 08:53:29;;;;;;;9.13;3.95;;;9.00;99.90;;;;;;5037649;28;20036;-66
2023/03/26 08:56:22;;;;;;;9.32;2.97;;;9.00;99.90;;;;;;5037195;28;20044;-66
2023/03/26 08:59:40;;;;;;;11.82;3.03;;;8.90;99.90;;;;;;5038194;28;20022;-66
2023/03/26 09:02:24;;;;;;;11.98;3.22;;;8.90;99.90;;;;;;5033713;28;20033;-66
2023/03/26 09:05:20;;;;;;;15.30;3.10;;;8.90;99.90;;;;;;5037516;28;20104;-66
2023/03/26 09:07:57;;;;;;;15.27;3.35;;;8.80;99.90;;;;;;5037413;28;20025;-66
2023/03/26 09:10:44;;;;;;;12.70;3.55;;;8.60;99.90;;;;;;5037357;28;20053;-66
2023/03/26 09:13:19;;;;;;;14.10;4.10;;;8.60;99.90;;;;;;5037609;28;20025;-66
2023/03/26 09:16:22;;;;;;;8.57;2.80;;;8.80;99.90;;;;;;5037536;28;20108;-66
2023/03/26 09:19:22;;;;;;;12.27;3.78;;;8.80;99.90;;;;;;5037243;28;20031;-66
2023/03/26 09:22:21;;;;;;;14.65;3.35;;;8.80;99.90;;;;;;5036642;28;20098;-66
2023/03/26 09:25:17;;;;;;;12.45;3.70;;;8.90;99.90;;;;;;5037160;28;20052;-66
2023/03/26 09:28:10;;;;;;;10.82;3.03;;;8.80;99.90;;;;;;5037141;28;20116;-66
2023/03/26 09:30:35;;;;;;;14.75;3.75;;;8.90;99.90;;;;;;5037458;28;20073;-66
2023/03/26 09:33:41;;;;;;;14.02;4.28;;;8.80;99.90;;;;;;5036566;28;20060;-66
2023/03/26 09:36:37;;;;;;;11.82;4.72;;;8.70;99.90;;;;;;5036006;28;20030;-66
2023/03/26 09:39:08;;;;;;;9.50;4.00;;;8.80;99.90;;;;;;5037120;28;20052;-66
2023/03/26 09:42:02;;;;;;;20.65;3.97;;;8.70;99.90;;;;;;5036300;28;20024;-66
2023/03/26 09:44:42;;;;;;;9.50;3.53;;;8.70;99.90;;;;;;5036899;28;20037;-66
2023/03/26 09:47:26;;;;;;;7.75;3.47;;;8.80;99.90;;;;;;5037002;28;20025;-66
2023/03/26 09:50:22;;;;;;;12.27;3.72;;;8.80;99.90;;;;;;5037278;28;20025;-66
2023/03/26 09:53:18;;;;;;;16.23;4.43;;;8.80;99.90;;;;;;5037279;28;20030;-66
2023/03/26 09:55:56;;;;;;;12.05;4.38;;;8.80;99.90;;;;;;5040247;28;20033;-66
2023/03/26 09:58:46;;;;;;;11.75;4.72;;;8.60;99.90;;;;;;5035984;28;20031;-66
2023/03/26 10:01:39;;;;;;;25.02;6.18;;;8.60;99.90;;;;;;5035936;28;20028;-66
2023/03/26 10:04:17;;;;;;;12.90;4.68;;;8.60;99.90;;;;;;5040781;28;20021;-66
2023/03/26 10:06:54;;;;;;;17.27;4.10;;;8.60;99.90;;;;;;5035830;28;20022;-66
2023/03/26 10:09:26;;;;;;;14.73;4.22;;;8.30;99.90;;;;;;5036452;28;20021;-65
2023/03/26 10:12:03;;;;;;;23.58;5.03;;;8.20;99.90;;;;;;5037082;28;20025;-65
2023/03/26 10:14:53;;;;;;;18.67;4.22;;;8.20;99.90;;;;;;5035796;28;20120;-66
2023/03/26 10:17:42;;;;;;;14.23;4.88;;;8.00;99.90;;;;;;5036668;28;20029;-65
2023/03/26 10:20:36;;;;;;;13.27;3.85;;;8.10;99.90;;;;;;5035731;28;20021;-65
2023/03/26 10:23:23;;;;;;;14.02;3.45;;;8.10;99.90;;;;;;5036852;28;20025;-65
2023/03/26 10:26:20;;;;;;;14.82;3.55;;;8.10;99.90;;;;;;5036781;28;20032;-65
2023/03/26 10:29:14;;;;;;;11.80;3.88;;;8.30;99.90;;;;;;5036886;28;20033;-65
2023/03/26 10:35:29;;;;;;;6.78;2.90;;;8.40;99.90;;;;;;5036816;28;20028;-65
2023/03/26 10:38:31;;;;;;;16.83;3.22;;;8.10;99.90;;;;;;5035315;28;20035;-65
2023/03/26 10:41:19;;;;;;;17.58;3.30;;;8.10;99.90;;;;;;5035594;28;20032;-65
2023/03/26 10:44:05;;;;;;;12.95;3.30;;;8.20;99.90;;;;;;5035854;28;20033;-65
2023/03/26 10:46:55;;;;;;;8.95;3.72;;;8.10;99.90;;;;;;5036648;28;20022;-66
2023/03/26 10:49:55;;;;;;;12.85;3.63;;;8.20;99.90;;;;;;5036405;28;20026;-66
2023/03/26 10:52:23;;;;;;;16.52;4.15;;;8.20;99.90;;;;;;5036794;28;20098;-66
2023/03/26 10:54:57;;;;;;;16.60;4.18;;;8.20;99.90;;;;;;5040173;28;20093;-66
2023/03/26 10:57:34;;;;;;;19.45;4.63;;;8.30;99.90;;;;;;5039523;28;20033;-67
2023/03/26 11:00:24;;;;;;;13.80;4.07;;;8.40;99.90;;;;;;5039074;28;20018;-66
2023/03/26 11:03:21;;;;;;;13.00;3.83;;;8.50;99.90;;;;;;5039998;28;20017;-65
2023/03/26 11:05:55;;;;;;;11.32;3.70;;;8.30;99.90;;;;;;5039781;28;20033;-66
2023/03/26 11:08:24;;;;;;;14.65;3.28;;;8.40;99.90;;;;;;5042289;28;20030;-65
2023/03/26 11:11:05;;;;;;;17.08;3.60;;;8.40;99.90;;;;;;5059970;28;20033;-65
2023/03/26 11:13:51;;;;;;;5.72;2.22;;;8.40;99.90;;;;;;5059990;28;20040;-65
2023/03/26 11:16:48;;;;;;;12.43;3.15;;;8.50;99.90;;;;;;5059222;28;20124;-66
2023/03/26 11:19:35;;;;;;;8.23;2.30;;;8.60;99.90;;;;;;5059428;28;20021;-66
2023/03/26 11:22:35;;;;;;;8.38;1.95;;;8.50;99.90;;;;;;5058483;28;20044;-66
2023/03/26 11:25:13;;;;;;;7.30;2.13;;;8.80;99.90;;;;;;5058474;28;20062;-65
2023/03/26 11:27:57;;;;;;;7.53;2.42;;;8.90;99.90;;;;;;5059175;28;20025;-65
2023/03/26 11:30:40;;;;;;;2.95;1.60;;;8.90;99.90;;;;;;5058280;28;20025;-66
2023/03/26 11:33:12;;;;;;;8.98;3.95;;;8.90;99.90;;;;;;5059219;28;20021;-66
2023/03/26 11:35:44;;;;;;;10.48;2.50;;;8.90;99.90;;;;;;5059112;28;20104;-66
2023/03/26 11:38:23;;;;;;;9.77;2.53;;;8.90;99.90;;;;;;5059256;28;20063;-65
2023/03/26 11:40:52;;;;;;;8.40;2.53;;;8.80;99.90;;;;;;5058154;28;20036;-65
2023/03/26 11:43:23;;;;;;;10.02;2.33;;;8.70;99.90;;;;;;5058256;28;20048;-65
2023/03/26 11:45:50;;;;;;;6.65;3.72;;;8.70;99.90;;;;;;5058168;28;20032;-66
2023/03/26 11:48:47;;;;;;;5.65;2.75;;;8.70;99.90;;;;;;5057811;28;20048;-66
2023/03/26 11:51:29;;;;;;;11.35;2.83;;;8.60;99.90;;;;;;5050442;28;20065;-66
2023/03/26 11:53:56;;;;;;;8.45;2.65;;;8.50;99.90;;;;;;5057915;28;20092;-66
2023/03/26 11:56:33;;;;;;;10.65;2.47;;;8.60;99.90;;;;;;5058111;28;20040;-66
2023/03/26 11:59:13;;;;;;;13.40;2.50;;;8.70;99.90;;;;;;5058673;28;20029;-66
2023/03/26 12:01:50;;;;;;;6.70;2.67;;;9.00;99.90;;;;;;5058630;28;20024;-66
2023/03/26 12:04:39;;;;;;;8.50;2.45;;;9.10;99.90;;;;;;5057955;28;20021;-66
2023/03/26 12:07:22;;;;;;;7.40;1.92;;;9.20;99.90;;;;;;5058446;28;20029;-66
2023/03/26 12:09:53;;;;;;;6.93;1.70;;;9.20;99.90;;;;;;5057767;28;20039;-66
2023/03/26 12:12:20;;;;;;;9.07;2.22;;;9.40;99.90;;;;;;5057744;28;20032;-66
2023/03/26 12:14:46;;;;;;;9.57;2.17;;;9.50;99.90;;;;;;5057572;28;20029;-66
2023/03/26 12:17:23;;;;;;;6.55;2.00;;;9.40;99.90;;;;;;5057292;28;20029;-66
2023/03/26 12:19:49;;;;;;;10.93;2.78;;;9.30;99.90;;;;;;5058310;28;20021;-66
2023/03/26 12:22:36;;;;;;;11.48;2.55;;;9.20;99.90;;;;;;5057151;28;20021;-66
2023/03/26 12:25:21;;;;;;;8.50;3.47;;;9.10;99.90;;;;;;5059047;28;20055;-66
2023/03/26 12:27:46;;;;;;;8.10;2.95;;;9.10;99.90;;;;;;5058025;28;20021;-66
2023/03/26 12:30:24;;;;;;;10.32;2.58;;;9.10;99.90;;;;;;5057208;28;20075;-66
2023/03/26 12:32:55;;;;;;;7.60;2.60;;;9.10;99.90;;;;;;5058049;28;20025;-66
2023/03/26 12:35:29;;;;;;;6.65;2.40;;;9.20;99.90;;;;;;5058118;28;20036;-66
2023/03/26 12:38:12;;;;;;;8.68;3.20;;;9.30;99.90;;;;;;5055521;23;20046;-69
2023/03/26 12:40:38;;;;;;;16.92;2.90;;;9.20;99.90;;;;;;5018067;28;20091;-69
2023/03/26 12:43:35;;;;;;;8.55;2.97;;;9.10;99.90;;;;;;5017539;28;20018;-68
2023/03/26 12:46:01;;;;;;;8.57;2.95;;;9.20;99.90;;;;;;5017748;28;20025;-69
2023/03/26 12:48:27;;;;;;;8.02;3.20;;;9.10;99.90;;;;;;5017065;28;20033;-69
2023/03/26 12:51:29;;;;;;;9.70;3.17;;;9.00;99.90;;;;;;5017341;28;20032;-69
2023/03/26 12:54:05;;;;;;;;;;;8.90;99.90;;;;;;5017580;28;20053;-69
2023/03/26 12:57:04;;;;;;;16.50;4.32;;;8.80;99.90;;;;;;5016737;28;19956;-69
2023/03/26 12:59:47;;;;;;;13.90;3.50;;;8.80;99.90;;;;;;5017177;28;20022;-69
2023/03/26 13:02:43;;;;;;;9.13;3.80;;;9.00;99.90;;;;;;5017657;28;20022;-69
2023/03/26 13:05:40;;;;;;;12.75;3.92;;;9.20;99.90;;;;;;5016889;28;20026;-69
2023/03/26 13:08:43;;;;;;;21.83;5.28;;;9.30;99.90;;;;;;5016675;28;20033;-69
2023/03/26 13:11:31;;;;;;;11.75;4.35;;;9.10;99.90;;;;;;4997160;28;20029;-69
2023/03/26 13:14:15;;;;;;;10.38;4.13;;;9.10;99.90;;;;;;4997902;28;20021;-69
2023/03/26 13:17:03;;;;;;;12.63;4.15;;;8.90;99.90;;;;;;4996001;28;20117;-69
2023/03/26 13:19:41;;;;;;;11.05;4.80;;;9.00;99.90;;;;;;4997329;28;20065;-69
2023/03/26 13:22:34;;;;;;;27.83;6.28;;;9.00;99.90;;;;;;4996849;28;20026;-69
2023/03/26 13:25:38;;;;;;;13.55;4.40;;;9.10;99.90;;;;;;4997363;28;20029;-69
2023/03/26 13:28:30;;;;;;;10.18;4.57;;;8.90;99.90;;;;;;4996260;28;20080;-69
2023/03/26 13:31:23;;;;;;;17.45;6.35;;;8.90;99.90;;;;;;4997032;28;20018;-69
2023/03/26 13:34:11;;;;;;;15.30;5.40;;;9.00;99.90;;;;;;4988551;28;20034;-68
2023/03/26 13:37:02;;;;;;;16.33;4.25;;;9.10;99.90;;;;;;4988615;28;20034;-68